Latest Weather Observations for Williamson

IDQ60801

Issued at 6:02 pm EST Friday 4 September 2015 (issued every 30 minutes, with the page automatically refreshed every 10 minutes)

About weather observations | Map of weather stations | Latest weather observations for QLD | Other Formats
Station Details ID: 033195 Name: WILLIAMSON Lat: -22.47 Lon: 150.18 Height: 27.6 m
Data from the previous 72 hours. | See also: Recent months at Williamson
Date/Time
EST
Temp
°C
App
Temp
°C
Dew
Point
Rel
Hum
%
Delta-T
°C
Wind Press
QNH
hPa
Press
MSL
hPa
Rain
since 9 am
mm
Dir
 
Spd
km/h
Gust
km/h
Spd
kts
Gust
kts
04/06:00pm 19.9 18.6 11.1 57 4.8 NNE 9 15 5 8 1017.5 1017.4 0.0
04/05:30pm 20.7 18.9 10.8 53 5.4 NNE 11 19 6 10 1017.1 1017.0 0.0
04/05:00pm 21.3 18.7 10.8 51 5.8 NNE 15 26 8 14 1016.7 1016.6 0.0
04/04:30pm 22.4 20.1 10.5 47 6.5 NE 13 20 7 11 1016.3 1016.2 0.0
04/04:00pm 23.0 20.8 10.8 46 6.7 NE 13 20 7 11 1016.1 1016.0 0.0
04/03:30pm 23.2 20.0 9.9 43 7.3 NE 17 24 9 13 1015.9 1015.8 0.0
04/03:00pm 24.2 21.0 8.6 37 8.4 N 15 22 8 12 1015.9 1015.8 0.0
04/02:30pm 25.5 22.4 7.1 31 9.7 NNE 13 19 7 10 1015.9 1015.8 0.0
04/02:00pm 26.7 23.6 1.2 19 12.1 SE 7 15 4 8 1016.2 1016.1 0.0
04/01:30pm 26.8 23.4 2.0 20 12.0 SW 9 19 5 10 1016.6 1016.5 0.0
04/01:00pm 25.8 22.5 2.5 22 11.3 SW 9 17 5 9 1017.1 1017.0 0.0
04/12:30pm 25.2 20.4 2.6 23 10.9 SSW 17 24 9 13 1017.7 1017.6 0.0
04/12:00pm 25.4 22.5 4.5 26 10.5 S 9 24 5 13 1018.2 1018.1 0.0
04/11:30am 25.0 20.9 4.2 26 10.3 S 15 28 8 15 1018.8 1018.7 0.0
04/11:00am 24.1 19.3 4.5 28 9.7 SSW 19 30 10 16 1019.3 1019.2 0.0
04/10:30am 23.4 18.6 4.4 29 9.4 SSE 19 30 10 16 1019.7 1019.6 0.0
04/10:00am 22.2 17.1 4.3 31 8.7 S 20 30 11 16 1019.9 1019.8 0.0
04/09:30am 22.4 17.1 4.9 32 8.7 S 22 37 12 20 1020.0 1019.9 0.0
04/09:00am 21.0 14.5 4.6 34 8.0 S 28 39 15 21 1019.8 1019.7 0.0
04/08:30am 20.2 15.3 5.1 37 7.4 S 20 35 11 19 1019.5 1019.4 0.0
04/08:00am 19.1 14.1 4.8 39 6.9 S 20 33 11 18 1019.2 1019.1 0.0
04/07:30am 17.7 11.6 4.6 42 6.2 SSW 26 33 14 18 1018.9 1018.8 0.0
04/07:00am 16.5 12.1 4.5 45 5.6 S 17 24 9 13 1019.1 1019.0 0.0
04/06:30am 15.0 10.8 5.5 53 4.5 S 17 20 9 11 1018.6 1018.5 0.0
04/06:00am 13.6 10.2 5.7 59 3.7 S 13 17 7 9 1018.3 1018.2 0.0
04/05:30am 14.5 11.8 5.6 55 4.2 SSE 9 15 5 8 1018.1 1018.0 0.0
04/05:00am 10.8 8.7 8.4 85 1.2 S 9 13 5 7 1017.7 1017.6 0.0
04/04:30am 10.1 10.0 9.3 95 0.4 CALM 0 4 0 2 1017.6 1017.5 0.0
04/04:00am 10.5 10.5 9.7 95 0.4 CALM 0 0 0 0 1017.3 1017.2 0.0
04/03:30am 10.7 10.7 9.8 94 0.5 CALM 0 0 0 0 1017.0 1016.9 0.0
04/03:00am 11.1 11.2 10.2 94 0.5 CALM 0 0 0 0 1016.9 1016.8 0.0
04/02:30am 11.5 11.3 10.6 94 0.5 ESE 2 9 1 5 1017.0 1016.9 0.0
04/02:00am 11.6 11.5 10.8 95 0.4 ESE 2 7 1 4 1017.3 1017.2 0.0
04/01:30am 12.0 12.4 11.2 95 0.4 CALM 0 0 0 0 1017.1 1017.0 0.0
04/01:00am 12.8 13.4 11.9 94 0.5 CALM 0 0 0 0 1017.2 1017.1 0.0
04/12:30am 13.4 13.8 12.6 95 0.4 ENE 2 9 1 5 1017.4 1017.3 0.0
04/12:00am 13.9 13.7 13.0 94 0.5 WSW 6 7 3 4 1017.2 1017.1 0.0
 
Date/Time
EST
Temp
°C
App
Temp
°C
Dew
Point
Rel
Hum
%
Delta-T
°C
Wind Press
QNH
hPa
Press
MSL
hPa
Rain
since 9 am
mm
Dir
 
Spd
km/h
Gust
km/h
Spd
kts
Gust
kts
03/11:30pm 14.3 15.0 13.5 95 0.4 NE 2 6 1 3 1017.2 1017.1 0.0
03/11:00pm 15.2 16.1 14.1 93 0.6 SW 2 7 1 4 1017.1 1017.0 0.0
03/10:30pm 16.1 16.2 15.5 96 0.3 SSW 9 11 5 6 1017.0 1016.9 0.0
03/10:00pm 17.1 19.2 16.3 95 0.5 CALM 0 0 0 0 1017.0 1016.9 0.0
03/09:30pm 17.7 20.0 16.7 94 0.6 CALM 0 0 0 0 1016.8 1016.7 0.0
03/09:00pm 18.5 21.0 17.3 93 0.7 CALM 0 0 0 0 1016.5 1016.4 0.0
03/08:30pm 20.0 22.2 18.3 90 1.1 S 4 7 2 4 1016.4 1016.3 0.0
03/08:00pm 20.8 23.9 18.7 88 1.3 CALM 0 0 0 0 1016.1 1016.0 0.0
03/07:30pm 21.9 24.1 19.1 84 1.8 NNW 6 7 3 4 1015.6 1015.5 0.0
03/07:00pm 22.7 25.9 18.9 79 2.4 CALM 0 0 0 0 1015.3 1015.2 0.0
03/06:30pm 23.8 25.9 19.3 76 2.9 NNW 7 11 4 6 1014.8 1014.7 0.0
03/06:00pm 24.7 26.2 18.9 70 3.7 NNW 9 15 5 8 1014.1 1014.0 0.0
03/05:30pm 25.7 27.2 18.9 66 4.3 N 9 17 5 9 1013.7 1013.6 0.0
03/05:00pm 26.4 26.9 18.3 61 5.1 NNW 13 22 7 12 1013.5 1013.4 0.0
03/04:30pm 27.4 27.9 18.4 58 5.7 NNW 13 24 7 13 1013.2 1013.1 0.0
03/04:00pm 27.9 28.3 18.9 58 5.8 NNW 15 24 8 13 1013.0 1012.9 0.0
03/03:30pm 27.3 27.5 19.4 62 5.1 NNE 17 24 9 13 1012.8 1012.7 0.0
03/03:00pm 27.3 26.9 19.4 62 5.1 NNE 20 32 11 17 1012.5 1012.4 0.0
03/02:30pm 27.9 27.5 19.4 60 5.5 NNE 20 33 11 18 1012.6 1012.5 0.0
03/02:00pm 28.2 28.2 19.7 60 5.5 N 19 32 10 17 1012.8 1012.7 0.0
03/01:30pm 28.4 28.9 19.3 57 5.9 N 15 33 8 18 1013.2 1013.1 0.0
03/01:00pm 29.9 28.4 15.2 41 9.0 NW 17 30 9 16 1013.6 1013.5 0.0
03/12:30pm 29.9 28.0 15.2 41 9.0 WNW 19 30 10 16 1014.2 1014.1 0.0
03/12:00pm 29.0 27.6 16.5 46 7.8 NW 19 32 10 17 1015.0 1014.9 0.0
03/11:30am 27.9 26.3 15.9 48 7.4 NW 19 33 10 18 1015.5 1015.4 0.0
03/11:00am 28.6 27.2 16.5 48 7.5 WNW 19 30 10 16 1016.2 1016.1 0.0
03/10:30am 27.3 26.0 17.2 54 6.3 WNW 20 30 11 16 1016.8 1016.7 0.0
03/10:00am 26.0 24.8 17.1 58 5.5 NW 19 30 10 16 1017.2 1017.1 0.0
03/09:30am 26.1 25.6 17.7 60 5.3 NW 17 24 9 13 1017.3 1017.2 0.0
03/09:00am 25.1 24.6 17.8 64 4.6 NNW 17 28 9 15 1017.4 1017.3 0.0
03/08:30am 24.9 25.4 19.3 71 3.6 NW 15 22 8 12 1017.6 1017.5 0.0
03/08:00am 23.7 24.4 19.6 78 2.6 NW 15 24 8 13 1017.5 1017.4 0.0
03/07:30am 23.2 24.3 19.6 80 2.3 NW 13 20 7 11 1017.3 1017.2 0.0
03/07:00am 22.7 24.0 19.3 81 2.2 NNW 11 19 6 10 1017.0 1016.9 0.0
03/06:30am 22.6 23.9 19.2 81 2.2 NNW 11 19 6 10 1016.6 1016.5 0.0
03/06:00am 22.5 23.4 19.3 82 2.0 N 13 20 7 11 1016.0 1015.9 0.0
03/05:30am 22.5 23.4 19.3 82 2.0 N 13 20 7 11 1015.4 1015.3 0.0
03/05:00am 22.4 23.4 19.4 83 1.9 NNW 13 28 7 15 1015.1 1015.0 0.0
03/04:30am 22.4 22.8 19.0 81 2.2 N 15 32 8 17 1014.8 1014.7 0.0
03/04:00am 22.2 22.8 19.4 84 1.8 N 15 24 8 13 1014.5 1014.4 0.0
03/03:30am 22.2 22.8 19.4 84 1.8 N 15 30 8 16 1014.3 1014.2 0.0
03/03:00am 22.1 22.7 19.5 85 1.7 N 15 26 8 14 1014.4 1014.3 0.0
03/02:30am 22.1 22.4 19.6 86 1.6 N 17 28 9 15 1014.8 1014.7 0.0
03/02:00am 22.0 22.3 19.5 86 1.6 N 17 28 9 15 1014.7 1014.6 0.0
03/01:30am 22.0 21.8 19.4 85 1.7 NNE 19 35 10 19 1014.5 1014.4 0.0
03/01:00am 22.2 21.5 19.6 85 1.7 NNE 22 39 12 21 1014.9 1014.8 0.0
03/12:30am 22.1 22.7 19.5 85 1.7 NNE 15 24 8 13 1015.6 1015.5 0.0
03/12:00am 22.1 22.4 19.5 85 1.7 NNE 17 26 9 14 1016.1 1016.0 0.0
 
Date/Time
EST
Temp
°C
App
Temp
°C
Dew
Point
Rel
Hum
%
Delta-T
°C
Wind Press
QNH
hPa
Press
MSL
hPa
Rain
since 9 am
mm
Dir
 
Spd
km/h
Gust
km/h
Spd
kts
Gust
kts
02/11:30pm 22.2 22.8 19.4 84 1.8 N 15 24 8 13 1016.3 1016.2 0.0
02/11:00pm 22.1 23.1 19.5 85 1.7 N 13 24 7 13 1016.5 1016.4 0.0
02/10:30pm 22.0 21.8 19.4 85 1.7 NNE 19 30 10 16 1016.3 1016.2 0.0
02/10:00pm 22.1 21.7 19.3 84 1.8 NNE 20 37 11 20 1016.6 1016.5 0.0
02/09:30pm 22.2 22.4 19.4 84 1.8 NNE 17 37 9 20 1016.6 1016.5 0.0
02/09:00pm 22.3 23.2 19.3 83 1.9 NNE 13 22 7 12 1016.5 1016.4 0.0
02/08:30pm 22.3 22.4 19.1 82 2.0 NNE 17 28 9 15 1016.7 1016.6 0.0
02/08:00pm 22.4 22.8 19.0 81 2.2 NNE 15 26 8 14 1016.6 1016.5 0.0
02/07:30pm 22.4 22.4 19.0 81 2.2 NNE 17 32 9 17 1016.3 1016.2 0.0
02/07:00pm 22.3 22.7 18.9 81 2.1 NNE 15 28 8 15 1016.0 1015.9 0.0
02/06:30pm 22.3 22.1 18.5 79 2.4 NNE 17 28 9 15 1015.6 1015.5 0.0
02/06:00pm 22.4 22.2 18.6 79 2.4 NNE 17 30 9 16 1015.6 1015.5 0.0
02/05:30pm 22.7 22.0 18.3 76 2.8 NNE 19 30 10 16 1015.7 1015.6 0.0
02/05:00pm 23.7 23.7 18.1 71 3.5 NNE 15 26 8 14 1015.7 1015.6 0.0
02/04:30pm 24.4 23.6 18.1 68 4.0 NNE 19 28 10 15 1015.7 1015.6 0.0
02/04:00pm 24.8 24.0 18.0 66 4.3 N 19 28 10 15 1015.7 1015.6 0.0
02/03:30pm 24.7 24.2 17.9 66 4.3 NNE 17 30 9 16 1015.8 1015.7 0.0
02/03:00pm 24.3 23.6 17.3 65 4.3 N 17 32 9 17 1015.8 1015.7 0.0
02/02:30pm 25.3 24.3 17.5 62 4.9 NNE 19 28 10 15 1016.1 1016.0 0.0
02/02:00pm 25.7 24.1 17.4 60 5.2 N 22 43 12 23 1016.6 1016.5 0.0
02/01:30pm 25.8 24.7 17.2 59 5.4 N 19 33 10 18 1017.1 1017.0 0.0
02/01:00pm 25.8 24.7 17.4 59 5.2 NNE 19 30 10 16 1017.6 1017.5 0.0
02/12:30pm 25.5 24.1 16.9 59 5.3 N 20 32 11 17 1018.0 1017.9 0.0
02/12:00pm 24.9 23.5 16.6 60 5.1 NNE 19 30 10 16 1018.4 1018.3 0.0
02/11:30am 25.3 24.0 16.7 59 5.3 NNE 19 30 10 16 1018.9 1018.8 0.0
02/11:00am 24.4 23.0 16.6 61 4.8 NNE 19 28 10 15 1019.4 1019.3 0.0
02/10:30am 24.6 23.7 16.8 62 4.8 NNE 17 26 9 14 1019.7 1019.6 0.0
02/10:00am 24.5 24.4 17.0 63 4.6 NNE 13 24 7 13 1019.9 1019.8 0.0
02/09:30am 24.2 23.4 17.2 65 4.3 NE 17 28 9 15 1020.0 1019.9 0.0
02/09:00am 23.0 22.6 17.2 70 3.6 NE 15 28 8 15 1019.9 1019.8 0.0
02/08:30am 22.5 22.5 17.2 72 3.3 NNE 13 24 7 13 1019.8 1019.7 0.0
02/08:00am 21.6 22.4 17.4 77 2.6 NE 9 15 5 8 1019.5 1019.4 0.0
02/07:30am 20.0 21.1 17.2 84 1.7 ENE 7 11 4 6 1019.3 1019.2 0.0
02/07:00am 17.2 19.1 16.7 97 0.3 SE 2 7 1 4 1019.1 1019.0 0.0
02/06:30am 15.4 17.0 14.9 97 0.3 CALM 0 0 0 0 1018.8 1018.7 0.0
02/06:00am 14.9 16.2 14.1 95 0.5 CALM 0 0 0 0 1018.4 1018.3 0.0
02/05:30am 15.0 16.0 14.4 96 0.3 ENE 2 7 1 4 1018.0 1017.9 0.0
02/05:00am 15.2 16.2 14.4 95 0.5 ESE 2 6 1 3 1017.8 1017.7 0.0
02/04:30am 15.3 16.7 14.3 94 0.6 CALM 0 0 0 0 1017.4 1017.3 0.0
02/04:00am 15.4 16.8 14.3 93 0.6 CALM 0 2 0 1 1017.4 1017.3 0.0
02/03:30am 15.4 16.8 14.3 93 0.6 CALM 0 0 0 0 1017.5 1017.4 0.0
02/03:00am 15.4 16.7 14.1 92 0.7 CALM 0 0 0 0 1017.5 1017.4 0.0
02/02:30am 15.6 16.4 13.8 89 1.0 ENE 2 6 1 3 1017.6 1017.5 0.0
02/02:00am 16.0 17.3 14.0 88 1.1 CALM 0 0 0 0 1017.8 1017.7 0.0
02/01:30am 16.8 18.2 14.4 86 1.4 CALM 0 0 0 0 1017.7 1017.6 0.0
02/01:00am 16.7 18.1 14.5 87 1.3 CALM 0 0 0 0 1017.8 1017.7 0.0
02/12:30am 16.0 17.3 14.2 89 1.0 CALM 0 0 0 0 1017.8 1017.7 0.0
02/12:00am 15.8 16.9 13.6 87 1.2 CALM 0 0 0 0 1017.7 1017.6 0.0
 
Date/Time
EST
Temp
°C
App
Temp
°C
Dew
Point
Rel
Hum
%
Delta-T
°C
Wind Press
QNH
hPa
Press
MSL
hPa
Rain
since 9 am
mm
Dir
 
Spd
km/h
Gust
km/h
Spd
kts
Gust
kts
01/11:30pm 16.1 17.2 13.6 85 1.4 CALM 0 0 0 0 1017.8 1017.7 0.0
01/11:00pm 16.6 17.8 13.7 83 1.6 CALM 0 0 0 0 1017.7 1017.6 0.0
01/10:30pm 17.0 18.1 13.5 80 2.0 CALM 0 0 0 0 1017.6 1017.5 0.0
01/10:00pm 17.7 18.8 13.4 76 2.4 CALM 0 0 0 0 1017.7 1017.6 0.0
01/09:30pm 18.3 18.2 13.4 73 2.8 NE 6 7 3 4 1017.5 1017.4 0.0
01/09:00pm 18.7 18.3 13.1 70 3.2 NE 7 11 4 6 1017.4 1017.3 0.0
01/08:30pm 19.2 18.9 13.2 68 3.4 NE 7 15 4 8 1017.1 1017.0 0.0
01/08:00pm 19.3 18.5 13.0 67 3.6 ENE 9 13 5 7 1016.9 1016.8 0.0
01/07:30pm 19.4 18.7 13.1 67 3.6 NE 9 13 5 7 1016.6 1016.5 0.0
01/07:00pm 19.5 19.2 13.4 68 3.5 NE 7 13 4 7 1016.2 1016.1 0.0
01/06:30pm 19.9 19.6 13.4 66 3.7 NNE 7 15 4 8 1015.9 1015.8 0.0

Other Formats:

Comma delimited format used in spreadsheet applications
http://www.bom.gov.au/fwo/IDQ60801/IDQ60801.95370.axf

JavaScript Object Notation format (JSON) in row-major order
http://www.bom.gov.au/fwo/IDQ60801/IDQ60801.95370.json